sensor_id;sensor_type;location;lat;lon;timestamp;pressure;altitude;pressure_sealevel;temperature;humidity
19023;BME280;35226;48.606;8.858;2024-01-30T00:01:29;97591.25;;;4.07;100.00
19023;BME280;35226;48.606;8.858;2024-01-30T00:03:54;97587.38;;;4.08;100.00
19023;BME280;35226;48.606;8.858;2024-01-30T00:06:20;97590.03;;;4.05;100.00
19023;BME280;35226;48.606;8.858;2024-01-30T00:08:49;97589.97;;;4.28;100.00
19023;BME280;35226;48.606;8.858;2024-01-30T00:11:17;97592.72;;;4.28;100.00
19023;BME280;35226;48.606;8.858;2024-01-30T00:13:43;97589.69;;;4.36;100.00
19023;BME280;35226;48.606;8.858;2024-01-30T00:16:08;97587.22;;;4.28;100.00
19023;BME280;35226;48.606;8.858;2024-01-30T00:18:34;97579.66;;;4.18;100.00
19023;BME280;35226;48.606;8.858;2024-01-30T00:21:00;97588.31;;;4.20;100.00
19023;BME280;35226;48.606;8.858;2024-01-30T00:23:25;97598.22;;;4.01;100.00
19023;BME280;35226;48.606;8.858;2024-01-30T00:25:51;97586.72;;;3.92;100.00
19023;BME280;35226;48.606;8.858;2024-01-30T00:28:16;97592.34;;;4.03;100.00
19023;BME280;35226;48.606;8.858;2024-01-30T00:30:42;97592.56;;;3.91;100.00
19023;BME280;35226;48.606;8.858;2024-01-30T00:33:08;97584.63;;;4.08;100.00
19023;BME280;35226;48.606;8.858;2024-01-30T00:35:33;97590.00;;;4.01;100.00
19023;BME280;35226;48.606;8.858;2024-01-30T00:37:59;97584.56;;;4.05;100.00
19023;BME280;35226;48.606;8.858;2024-01-30T00:40:25;97592.50;;;4.14;100.00
19023;BME280;35226;48.606;8.858;2024-01-30T00:42:50;97592.56;;;4.17;100.00
19023;BME280;35226;48.606;8.858;2024-01-30T00:45:16;97593.34;;;4.18;100.00
19023;BME280;35226;48.606;8.858;2024-01-30T00:47:42;97587.03;;;3.87;100.00
19023;BME280;35226;48.606;8.858;2024-01-30T00:50:08;97595.16;;;3.80;100.00
19023;BME280;35226;48.606;8.858;2024-01-30T00:52:34;97584.88;;;3.73;100.00
19023;BME280;35226;48.606;8.858;2024-01-30T00:55:01;97582.16;;;4.00;100.00
19023;BME280;35226;48.606;8.858;2024-01-30T00:57:26;97585.78;;;4.07;100.00
19023;BME280;35226;48.606;8.858;2024-01-30T00:59:52;97584.09;;;3.99;100.00
19023;BME280;35226;48.606;8.858;2024-01-30T01:02:18;97575.53;;;3.75;100.00
19023;BME280;35226;48.606;8.858;2024-01-30T01:04:44;97588.50;;;4.07;100.00
19023;BME280;35226;48.606;8.858;2024-01-30T01:07:10;97586.22;;;4.09;100.00
19023;BME280;35226;48.606;8.858;2024-01-30T01:09:36;97578.63;;;3.99;100.00
19023;BME280;35226;48.606;8.858;2024-01-30T01:12:02;97581.41;;;4.03;100.00
19023;BME280;35226;48.606;8.858;2024-01-30T01:14:28;97581.88;;;3.82;100.00
19023;BME280;35226;48.606;8.858;2024-01-30T01:16:53;97593.16;;;3.77;100.00
19023;BME280;35226;48.606;8.858;2024-01-30T01:19:19;97580.09;;;3.67;100.00
19023;BME280;35226;48.606;8.858;2024-01-30T01:21:44;97585.72;;;3.51;100.00
19023;BME280;35226;48.606;8.858;2024-01-30T01:24:10;97586.25;;;3.38;100.00
19023;BME280;35226;48.606;8.858;2024-01-30T01:26:35;97585.81;;;3.58;100.00
19023;BME280;35226;48.606;8.858;2024-01-30T01:29:01;97588.19;;;3.60;100.00
19023;BME280;35226;48.606;8.858;2024-01-30T01:31:26;97597.88;;;3.80;100.00
19023;BME280;35226;48.606;8.858;2024-01-30T01:33:54;97595.97;;;3.84;100.00
19023;BME280;35226;48.606;8.858;2024-01-30T01:36:20;97586.94;;;3.80;100.00
19023;BME280;35226;48.606;8.858;2024-01-30T01:38:46;97591.25;;;3.81;100.00
19023;BME280;35226;48.606;8.858;2024-01-30T01:41:11;97585.94;;;3.65;100.00
19023;BME280;35226;48.606;8.858;2024-01-30T01:43:37;97587.44;;;3.63;100.00
19023;BME280;35226;48.606;8.858;2024-01-30T01:46:05;97593.91;;;3.51;100.00
19023;BME280;35226;48.606;8.858;2024-01-30T01:48:31;97586.81;;;3.73;100.00
19023;BME280;35226;48.606;8.858;2024-01-30T01:50:57;97582.66;;;3.56;100.00
19023;BME280;35226;48.606;8.858;2024-01-30T01:53:23;97589.25;;;3.52;100.00
19023;BME280;35226;48.606;8.858;2024-01-30T01:55:49;97586.25;;;3.60;100.00
19023;BME280;35226;48.606;8.858;2024-01-30T01:58:19;97587.34;;;3.82;100.00
19023;BME280;35226;48.606;8.858;2024-01-30T02:00:46;97584.59;;;3.79;100.00
19023;BME280;35226;48.606;8.858;2024-01-30T02:03:13;97584.66;;;3.59;100.00
19023;BME280;35226;48.606;8.858;2024-01-30T02:05:40;97583.97;;;3.40;100.00
19023;BME280;35226;48.606;8.858;2024-01-30T02:08:08;97579.09;;;3.52;100.00
19023;BME280;35226;48.606;8.858;2024-01-30T02:10:34;97582.38;;;3.61;100.00
19023;BME280;35226;48.606;8.858;2024-01-30T02:12:59;97578.63;;;3.73;100.00
19023;BME280;35226;48.606;8.858;2024-01-30T02:15:25;97583.56;;;3.64;100.00
19023;BME280;35226;48.606;8.858;2024-01-30T02:17:50;97580.66;;;3.53;100.00
19023;BME280;35226;48.606;8.858;2024-01-30T02:20:16;97579.56;;;3.58;100.00
19023;BME280;35226;48.606;8.858;2024-01-30T02:22:42;97580.78;;;3.60;100.00
19023;BME280;35226;48.606;8.858;2024-01-30T02:25:08;97578.41;;;3.59;100.00
19023;BME280;35226;48.606;8.858;2024-01-30T02:27:34;97579.13;;;3.56;100.00
19023;BME280;35226;48.606;8.858;2024-01-30T02:29:59;97581.75;;;3.49;100.00
19023;BME280;35226;48.606;8.858;2024-01-30T02:32:25;97585.47;;;3.37;100.00
19023;BME280;35226;48.606;8.858;2024-01-30T02:34:50;97582.13;;;3.24;100.00
19023;BME280;35226;48.606;8.858;2024-01-30T02:37:16;97586.88;;;3.27;100.00
19023;BME280;35226;48.606;8.858;2024-01-30T02:39:42;97589.78;;;3.15;100.00
19023;BME280;35226;48.606;8.858;2024-01-30T02:42:07;97583.41;;;3.08;100.00
19023;BME280;35226;48.606;8.858;2024-01-30T02:44:33;97587.97;;;3.23;100.00
19023;BME280;35226;48.606;8.858;2024-01-30T02:46:59;97581.88;;;3.33;100.00
19023;BME280;35226;48.606;8.858;2024-01-30T02:49:24;97589.25;;;3.29;100.00
19023;BME280;35226;48.606;8.858;2024-01-30T02:51:51;97586.88;;;3.27;100.00
19023;BME280;35226;48.606;8.858;2024-01-30T02:54:17;97585.72;;;3.28;100.00
19023;BME280;35226;48.606;8.858;2024-01-30T02:56:42;97587.00;;;3.12;100.00
19023;BME280;35226;48.606;8.858;2024-01-30T02:59:07;97586.06;;;3.04;100.00
19023;BME280;35226;48.606;8.858;2024-01-30T03:01:33;97585.78;;;3.32;100.00
19023;BME280;35226;48.606;8.858;2024-01-30T03:03:58;97583.47;;;3.34;100.00
19023;BME280;35226;48.606;8.858;2024-01-30T03:06:24;97580.97;;;3.25;100.00
19023;BME280;35226;48.606;8.858;2024-01-30T03:08:49;97582.13;;;3.24;100.00
19023;BME280;35226;48.606;8.858;2024-01-30T03:11:15;97578.69;;;3.27;100.00
19023;BME280;35226;48.606;8.858;2024-01-30T03:13:40;97579.03;;;3.26;100.00
19023;BME280;35226;48.606;8.858;2024-01-30T03:16:06;97581.75;;;3.26;100.00
19023;BME280;35226;48.606;8.858;2024-01-30T03:18:36;97587.97;;;3.23;100.00
19023;BME280;35226;48.606;8.858;2024-01-30T03:21:02;97580.78;;;3.15;100.00
19023;BME280;35226;48.606;8.858;2024-01-30T03:23:27;97587.47;;;3.17;100.00
19023;BME280;35226;48.606;8.858;2024-01-30T03:25:56;97582.59;;;3.07;100.00
19023;BME280;35226;48.606;8.858;2024-01-30T03:28:21;97580.19;;;3.02;100.00
19023;BME280;35226;48.606;8.858;2024-01-30T03:30:47;97577.81;;;3.01;100.00
19023;BME280;35226;48.606;8.858;2024-01-30T03:33:12;97572.78;;;3.03;100.00
19023;BME280;35226;48.606;8.858;2024-01-30T03:35:38;97572.78;;;3.03;100.00
19023;BME280;35226;48.606;8.858;2024-01-30T03:38:03;97569.56;;;2.97;100.00
19023;BME280;35226;48.606;8.858;2024-01-30T03:40:29;97575.31;;;2.92;100.00
19023;BME280;35226;48.606;8.858;2024-01-30T03:42:55;97577.97;;;2.88;100.00
19023;BME280;35226;48.606;8.858;2024-01-30T03:45:20;97573.44;;;2.96;100.00
19023;BME280;35226;48.606;8.858;2024-01-30T03:47:46;97574.19;;;2.93;100.00
19023;BME280;35226;48.606;8.858;2024-01-30T03:50:11;97572.94;;;2.90;100.00
19023;BME280;35226;48.606;8.858;2024-01-30T03:52:37;97574.47;;;2.88;100.00
19023;BME280;35226;48.606;8.858;2024-01-30T03:55:03;97570.84;;;2.61;100.00
19023;BME280;35226;48.606;8.858;2024-01-30T03:57:28;97566.31;;;2.69;100.00
19023;BME280;35226;48.606;8.858;2024-01-30T03:59:54;97569.69;;;2.62;100.00
19023;BME280;35226;48.606;8.858;2024-01-30T04:02:20;97568.94;;;2.84;100.00
19023;BME280;35226;48.606;8.858;2024-01-30T04:04:45;97575.69;;;2.90;100.00
19023;BME280;35226;48.606;8.858;2024-01-30T04:07:11;97579.59;;;2.70;100.00
19023;BME280;35226;48.606;8.858;2024-01-30T04:09:38;97572.97;;;2.71;100.00
19023;BME280;35226;48.606;8.858;2024-01-30T04:12:04;97575.34;;;2.73;100.00
19023;BME280;35226;48.606;8.858;2024-01-30T04:14:29;97567.31;;;2.60;100.00
19023;BME280;35226;48.606;8.858;2024-01-30T04:16:55;97568.81;;;2.77;100.00
19023;BME280;35226;48.606;8.858;2024-01-30T04:19:20;97572.22;;;2.51;100.00
19023;BME280;35226;48.606;8.858;2024-01-30T04:21:46;97573.91;;;2.79;100.00
19023;BME280;35226;48.606;8.858;2024-01-30T04:24:11;97575.06;;;2.39;100.00
19023;BME280;35226;48.606;8.858;2024-01-30T04:26:37;97567.31;;;2.60;100.00
19023;BME280;35226;48.606;8.858;2024-01-30T04:29:02;97575.75;;;2.75;100.00
19023;BME280;35226;48.606;8.858;2024-01-30T04:31:28;97574.06;;;2.67;100.00
19023;BME280;35226;48.606;8.858;2024-01-30T04:33:53;97576.44;;;2.68;100.00
19023;BME280;35226;48.606;8.858;2024-01-30T04:36:19;97583.34;;;2.43;100.00
19023;BME280;35226;48.606;8.858;2024-01-30T04:38:44;97581.63;;;2.35;100.00
19023;BME280;35226;48.606;8.858;2024-01-30T04:41:13;97579.28;;;2.37;100.00
19023;BME280;35226;48.606;8.858;2024-01-30T04:43:38;97575.59;;;2.45;100.00
19023;BME280;35226;48.606;8.858;2024-01-30T04:46:04;97577.56;;;2.67;100.00
19023;BME280;35226;48.606;8.858;2024-01-30T04:48:30;97574.41;;;2.65;100.00
19023;BME280;35226;48.606;8.858;2024-01-30T04:50:56;97582.75;;;2.72;100.00
19023;BME280;35226;48.606;8.858;2024-01-30T04:53:21;97580.94;;;2.80;100.00
19023;BME280;35226;48.606;8.858;2024-01-30T04:55:47;97579.50;;;2.47;100.00
19023;BME280;35226;48.606;8.858;2024-01-30T04:58:12;97581.22;;;2.36;100.00
19023;BME280;35226;48.606;8.858;2024-01-30T05:00:38;97574.94;;;2.32;100.00
19023;BME280;35226;48.606;8.858;2024-01-30T05:03:06;97583.13;;;2.51;100.00
19023;BME280;35226;48.606;8.858;2024-01-30T05:05:33;97586.13;;;2.46;100.00
19023;BME280;35226;48.606;8.858;2024-01-30T05:07:58;97581.31;;;2.59;100.00
19023;BME280;35226;48.606;8.858;2024-01-30T05:10:24;97589.28;;;2.48;100.00
19023;BME280;35226;48.606;8.858;2024-01-30T05:12:49;97582.75;;;2.53;100.00
19023;BME280;35226;48.606;8.858;2024-01-30T05:15:14;97585.50;;;2.34;100.00
19023;BME280;35226;48.606;8.858;2024-01-30T05:17:40;97592.22;;;2.20;100.00
19023;BME280;35226;48.606;8.858;2024-01-30T05:20:06;97588.22;;;2.34;100.00
19023;BME280;35226;48.606;8.858;2024-01-30T05:22:32;97590.84;;;2.30;100.00
19023;BME280;35226;48.606;8.858;2024-01-30T05:24:58;97597.53;;;2.33;100.00
19023;BME280;35226;48.606;8.858;2024-01-30T05:27:23;97594.06;;;2.16;100.00
19023;BME280;35226;48.606;8.858;2024-01-30T05:29:49;97596.59;;;2.25;100.00
19023;BME280;35226;48.606;8.858;2024-01-30T05:32:15;97591.91;;;2.26;100.00
19023;BME280;35226;48.606;8.858;2024-01-30T05:34:40;97593.88;;;2.25;100.00
19023;BME280;35226;48.606;8.858;2024-01-30T05:37:06;97602.06;;;2.25;100.00
19023;BME280;35226;48.606;8.858;2024-01-30T05:39:31;97590.28;;;2.40;100.00
19023;BME280;35226;48.606;8.858;2024-01-30T05:41:58;97596.16;;;2.23;100.00
19023;BME280;35226;48.606;8.858;2024-01-30T05:44:24;97590.94;;;2.34;100.00
19023;BME280;35226;48.606;8.858;2024-01-30T05:46:49;97595.81;;;2.25;100.00
19023;BME280;35226;48.606;8.858;2024-01-30T05:49:15;97592.00;;;2.48;100.00
19023;BME280;35226;48.606;8.858;2024-01-30T05:51:40;97595.88;;;2.28;100.00
19023;BME280;35226;48.606;8.858;2024-01-30T05:54:06;97599.47;;;2.32;100.00
19023;BME280;35226;48.606;8.858;2024-01-30T05:56:31;97599.81;;;2.31;100.00
19023;BME280;35226;48.606;8.858;2024-01-30T05:58:57;97606.00;;;2.28;100.00
19023;BME280;35226;48.606;8.858;2024-01-30T06:01:22;97606.63;;;2.21;100.00
19023;BME280;35226;48.606;8.858;2024-01-30T06:03:48;97602.88;;;2.10;100.00
19023;BME280;35226;48.606;8.858;2024-01-30T06:06:13;97598.75;;;2.35;100.00
19023;BME280;35226;48.606;8.858;2024-01-30T06:08:39;97601.19;;;2.40;100.00
19023;BME280;35226;48.606;8.858;2024-01-30T06:11:04;97611.81;;;2.45;100.00
19023;BME280;35226;48.606;8.858;2024-01-30T06:13:30;97610.25;;;2.44;100.00
19023;BME280;35226;48.606;8.858;2024-01-30T06:15:57;97608.31;;;2.45;100.00
19023;BME280;35226;48.606;8.858;2024-01-30T06:18:22;97605.78;;;2.36;100.00
19023;BME280;35226;48.606;8.858;2024-01-30T06:20:48;97601.63;;;2.42;100.00
19023;BME280;35226;48.606;8.858;2024-01-30T06:23:14;97600.41;;;2.40;100.00
19023;BME280;35226;48.606;8.858;2024-01-30T06:25:40;97611.31;;;2.40;100.00
19023;BME280;35226;48.606;8.858;2024-01-30T06:28:05;97610.16;;;2.41;100.00
19023;BME280;35226;48.606;8.858;2024-01-30T06:30:31;97603.94;;;2.40;100.00
19023;BME280;35226;48.606;8.858;2024-01-30T06:32:56;97607.34;;;2.37;100.00
19023;BME280;35226;48.606;8.858;2024-01-30T06:35:22;97598.25;;;2.30;100.00
19023;BME280;35226;48.606;8.858;2024-01-30T06:37:47;97603.50;;;2.38;100.00
19023;BME280;35226;48.606;8.858;2024-01-30T06:40:13;97603.94;;;2.40;100.00
19023;BME280;35226;48.606;8.858;2024-01-30T06:42:38;97604.72;;;2.41;100.00
19023;BME280;35226;48.606;8.858;2024-01-30T06:45:04;97607.00;;;2.39;100.00
19023;BME280;35226;48.606;8.858;2024-01-30T06:47:30;97604.13;;;2.32;100.00
19023;BME280;35226;48.606;8.858;2024-01-30T06:49:56;97605.19;;;2.27;100.00
19023;BME280;35226;48.606;8.858;2024-01-30T06:52:21;97611.16;;;2.13;100.00
19023;BME280;35226;48.606;8.858;2024-01-30T06:54:47;97606.63;;;2.21;100.00
19023;BME280;35226;48.606;8.858;2024-01-30T06:57:13;97610.13;;;2.02;100.00
19023;BME280;35226;48.606;8.858;2024-01-30T06:59:39;97606.06;;;2.31;100.00
19023;BME280;35226;48.606;8.858;2024-01-30T07:02:12;97615.56;;;2.02;100.00
19023;BME280;35226;48.606;8.858;2024-01-30T07:04:38;97616.22;;;1.96;100.00
19023;BME280;35226;48.606;8.858;2024-01-30T07:07:04;97616.25;;;2.15;100.00
19023;BME280;35226;48.606;8.858;2024-01-30T07:09:31;97612.72;;;2.14;100.00
19023;BME280;35226;48.606;8.858;2024-01-30T07:11:56;97620.88;;;1.95;100.00
19023;BME280;35226;48.606;8.858;2024-01-30T07:14:24;97612.97;;;2.25;100.00
19023;BME280;35226;48.606;8.858;2024-01-30T07:16:49;97612.66;;;2.11;100.00
19023;BME280;35226;48.606;8.858;2024-01-30T07:19:15;97618.59;;;2.16;100.00
19023;BME280;35226;48.606;8.858;2024-01-30T07:21:41;97621.97;;;2.10;100.00
19023;BME280;35226;48.606;8.858;2024-01-30T07:24:07;97623.19;;;2.12;100.00
19023;BME280;35226;48.606;8.858;2024-01-30T07:26:32;97616.69;;;2.36;100.00
19023;BME280;35226;48.606;8.858;2024-01-30T07:28:58;97615.50;;;2.34;100.00
19023;BME280;35226;48.606;8.858;2024-01-30T07:31:23;97610.63;;;2.43;100.00
19023;BME280;35226;48.606;8.858;2024-01-30T07:33:49;97615.63;;;2.41;100.00
19023;BME280;35226;48.606;8.858;2024-01-30T07:36:14;97612.19;;;2.44;100.00
19023;BME280;35226;48.606;8.858;2024-01-30T07:38:40;97623.59;;;2.49;100.00
19023;BME280;35226;48.606;8.858;2024-01-30T07:41:05;97631.44;;;2.51;100.00
19023;BME280;35226;48.606;8.858;2024-01-30T07:43:31;97623.25;;;2.70;100.00
19023;BME280;35226;48.606;8.858;2024-01-30T07:45:56;97630.16;;;2.64;100.00
19023;BME280;35226;48.606;8.858;2024-01-30T07:48:22;97625.47;;;2.84;100.00
19023;BME280;35226;48.606;8.858;2024-01-30T07:50:48;97626.63;;;2.83;100.00
19023;BME280;35226;48.606;8.858;2024-01-30T07:53:13;97628.25;;;2.87;100.00
19023;BME280;35226;48.606;8.858;2024-01-30T07:55:39;97633.34;;;2.89;100.00
19023;BME280;35226;48.606;8.858;2024-01-30T07:58:04;97632.72;;;2.76;100.00
19023;BME280;35226;48.606;8.858;2024-01-30T08:00:30;97629.34;;;2.83;100.00
19023;BME280;35226;48.606;8.858;2024-01-30T08:02:59;97634.06;;;2.86;100.00
19023;BME280;35226;48.606;8.858;2024-01-30T08:05:24;97625.59;;;2.91;100.00
19023;BME280;35226;48.606;8.858;2024-01-30T08:07:50;97629.34;;;3.02;100.00
19023;BME280;35226;48.606;8.858;2024-01-30T08:10:16;97628.91;;;3.00;100.00
19023;BME280;35226;48.606;8.858;2024-01-30T08:12:44;97635.94;;;3.24;100.00
19023;BME280;35226;48.606;8.858;2024-01-30T08:15:10;97629.06;;;3.30;100.00
19023;BME280;35226;48.606;8.858;2024-01-30T08:17:35;97638.16;;;3.38;100.00
19023;BME280;35226;48.606;8.858;2024-01-30T08:20:01;97632.22;;;3.55;100.00
19023;BME280;35226;48.606;8.858;2024-01-30T08:22:26;97629.84;;;3.53;100.00
19023;BME280;35226;48.606;8.858;2024-01-30T08:24:53;97631.47;;;3.58;100.00
19023;BME280;35226;48.606;8.858;2024-01-30T08:27:22;97634.03;;;3.70;100.00
19023;BME280;35226;48.606;8.858;2024-01-30T08:29:47;97628.75;;;3.58;100.00
19023;BME280;35226;48.606;8.858;2024-01-30T08:32:13;97640.28;;;3.48;100.00
19023;BME280;35226;48.606;8.858;2024-01-30T08:34:39;97630.75;;;3.61;100.00
19023;BME280;35226;48.606;8.858;2024-01-30T08:37:04;97628.69;;;3.54;100.00
19023;BME280;35226;48.606;8.858;2024-01-30T08:39:30;97631.06;;;3.56;100.00
19023;BME280;35226;48.606;8.858;2024-01-30T08:41:56;97630.03;;;3.41;100.00
19023;BME280;35226;48.606;8.858;2024-01-30T08:44:21;97630.31;;;3.82;100.00
19023;BME280;35226;48.606;8.858;2024-01-30T08:46:47;97636.78;;;3.96;100.00
19023;BME280;35226;48.606;8.858;2024-01-30T08:49:13;97637.84;;;3.65;100.00
19023;BME280;35226;48.606;8.858;2024-01-30T08:51:39;97640.28;;;3.70;100.00
19023;BME280;35226;48.606;8.858;2024-01-30T08:54:05;97646.56;;;3.71;100.00
19023;BME280;35226;48.606;8.858;2024-01-30T08:56:30;97642.50;;;3.88;100.00
19023;BME280;35226;48.606;8.858;2024-01-30T08:58:56;97639.00;;;3.87;100.00
19023;BME280;35226;48.606;8.858;2024-01-30T09:01:21;97650.00;;;4.17;100.00
19023;BME280;35226;48.606;8.858;2024-01-30T09:03:47;97641.25;;;4.34;100.00
19023;BME280;35226;48.606;8.858;2024-01-30T09:06:13;97642.75;;;4.32;100.00
19023;BME280;35226;48.606;8.858;2024-01-30T09:08:38;97637.41;;;4.39;100.00
19023;BME280;35226;48.606;8.858;2024-01-30T09:11:14;97643.81;;;4.50;100.00
19023;BME280;35226;48.606;8.858;2024-01-30T09:13:40;97639.66;;;4.60;100.00
19023;BME280;35226;48.606;8.858;2024-01-30T09:16:06;97642.50;;;4.70;100.00
19023;BME280;35226;48.606;8.858;2024-01-30T09:18:32;97640.19;;;4.72;100.00
19023;BME280;35226;48.606;8.858;2024-01-30T09:20:58;97641.31;;;4.68;100.00
19023;BME280;35226;48.606;8.858;2024-01-30T09:23:24;97638.50;;;4.94;100.00
19023;BME280;35226;48.606;8.858;2024-01-30T09:25:50;97641.72;;;5.03;100.00
19023;BME280;35226;48.606;8.858;2024-01-30T09:28:17;97641.91;;;5.21;100.00
19023;BME280;35226;48.606;8.858;2024-01-30T09:30:43;97640.50;;;5.34;100.00
19023;BME280;35226;48.606;8.858;2024-01-30T09:33:08;97642.75;;;5.25;100.00
19023;BME280;35226;48.606;8.858;2024-01-30T09:35:34;97643.59;;;5.33;100.00
19023;BME280;35226;48.606;8.858;2024-01-30T09:38:00;97647.19;;;5.40;100.00
19023;BME280;35226;48.606;8.858;2024-01-30T09:40:25;97646.88;;;5.45;100.00
19023;BME280;35226;48.606;8.858;2024-01-30T09:42:51;97642.50;;;5.41;100.00
19023;BME280;35226;48.606;8.858;2024-01-30T09:45:23;97652.47;;;5.56;100.00
19023;BME280;35226;48.606;8.858;2024-01-30T09:47:49;97643.88;;;5.61;100.00
19023;BME280;35226;48.606;8.858;2024-01-30T09:50:16;97645.50;;;5.69;100.00
19023;BME280;35226;48.606;8.858;2024-01-30T09:52:43;97656.16;;;5.74;100.00
19023;BME280;35226;48.606;8.858;2024-01-30T09:55:09;97654.22;;;5.78;100.00
19023;BME280;35226;48.606;8.858;2024-01-30T09:57:35;97657.75;;;5.79;100.00
19023;BME280;35226;48.606;8.858;2024-01-30T10:00:04;97648.44;;;5.87;100.00
19023;BME280;35226;48.606;8.858;2024-01-30T10:02:38;97651.97;;;5.87;100.00
19023;BME280;35226;48.606;8.858;2024-01-30T10:05:04;97648.94;;;6.00;100.00
19023;BME280;35226;48.606;8.858;2024-01-30T10:07:31;97656.44;;;6.10;100.00
19023;BME280;35226;48.606;8.858;2024-01-30T10:09:56;97653.44;;;6.25;100.00
19023;BME280;35226;48.606;8.858;2024-01-30T10:12:22;97654.69;;;6.35;100.00
19023;BME280;35226;48.606;8.858;2024-01-30T10:14:48;97649.28;;;6.53;100.00
19023;BME280;35226;48.606;8.858;2024-01-30T10:17:14;97651.28;;;6.59;100.00
19023;BME280;35226;48.606;8.858;2024-01-30T10:19:40;97656.44;;;6.64;100.00
19023;BME280;35226;48.606;8.858;2024-01-30T10:22:06;97656.88;;;6.74;100.00
19023;BME280;35226;48.606;8.858;2024-01-30T10:24:33;97657.69;;;6.85;100.00
19023;BME280;35226;48.606;8.858;2024-01-30T10:26:59;97645.59;;;7.00;100.00
19023;BME280;35226;48.606;8.858;2024-01-30T10:29:25;97641.66;;;6.94;100.00
19023;BME280;35226;48.606;8.858;2024-01-30T10:32:01;97635.78;;;7.06;100.00
19023;BME280;35226;48.606;8.858;2024-01-30T10:34:27;97634.66;;;7.14;100.00
19023;BME280;35226;48.606;8.858;2024-01-30T10:39:29;97637.88;;;7.52;100.00
19023;BME280;35226;48.606;8.858;2024-01-30T10:41:56;97635.94;;;7.63;100.00
19023;BME280;35226;48.606;8.858;2024-01-30T10:44:23;97633.97;;;7.70;100.00
19023;BME280;35226;48.606;8.858;2024-01-30T10:46:56;97638.66;;;7.84;100.00
19023;BME280;35226;48.606;8.858;2024-01-30T10:49:29;97633.16;;;7.95;100.00
19023;BME280;35226;48.606;8.858;2024-01-30T10:51:55;97635.53;;;8.03;100.00
19023;BME280;35226;48.606;8.858;2024-01-30T10:54:23;97635.91;;;8.23;100.00
19023;BME280;35226;48.606;8.858;2024-01-30T10:56:50;97637.91;;;8.08;100.00
19023;BME280;35226;48.606;8.858;2024-01-30T10:59:16;97636.31;;;8.18;100.00
19023;BME280;35226;48.606;8.858;2024-01-30T11:01:42;97633.16;;;8.30;100.00
19023;BME280;35226;48.606;8.858;2024-01-30T11:04:08;97622.94;;;8.34;100.00
19023;BME280;35226;48.606;8.858;2024-01-30T11:06:41;97623.72;;;8.35;100.00
19023;BME280;35226;48.606;8.858;2024-01-30T11:09:11;97632.38;;;8.30;100.00
19023;BME280;35226;48.606;8.858;2024-01-30T11:11:59;97625.69;;;8.38;100.00
19023;BME280;35226;48.606;8.858;2024-01-30T11:14:32;97627.25;;;8.49;100.00
19023;BME280;35226;48.606;8.858;2024-01-30T11:16:58;97623.66;;;8.67;100.00
19023;BME280;35226;48.606;8.858;2024-01-30T11:19:25;97628.34;;;8.73;100.00
19023;BME280;35226;48.606;8.858;2024-01-30T11:21:55;97616.09;;;8.85;100.00
19023;BME280;35226;48.606;8.858;2024-01-30T11:24:23;97615.72;;;8.83;100.00
19023;BME280;35226;48.606;8.858;2024-01-30T11:26:58;97614.94;;;8.82;100.00
19023;BME280;35226;48.606;8.858;2024-01-30T11:29:28;97616.84;;;8.93;100.00
19023;BME280;35226;48.606;8.858;2024-01-30T11:31:54;97615.66;;;8.97;100.00
19023;BME280;35226;48.606;8.858;2024-01-30T11:34:21;97617.63;;;8.97;100.00
19023;BME280;35226;48.606;8.858;2024-01-30T11:37:03;97607.00;;;8.91;100.00
19023;BME280;35226;48.606;8.858;2024-01-30T11:39:29;97607.00;;;8.99;100.00
19023;BME280;35226;48.606;8.858;2024-01-30T11:41:55;97610.38;;;9.27;100.00
19023;BME280;35226;48.606;8.858;2024-01-30T11:44:24;97601.63;;;9.43;100.00
19023;BME280;35226;48.606;8.858;2024-01-30T11:46:51;97593.84;;;9.24;100.00
19023;BME280;35226;48.606;8.858;2024-01-30T11:49:17;97608.38;;;9.32;100.00
19023;BME280;35226;48.606;8.858;2024-01-30T11:51:45;97600.53;;;9.30;100.00
19023;BME280;35226;48.606;8.858;2024-01-30T11:54:11;97601.69;;;9.33;100.00
19023;BME280;35226;48.606;8.858;2024-01-30T11:56:37;97596.03;;;9.50;100.00
19023;BME280;35226;48.606;8.858;2024-01-30T11:59:04;97593.19;;;9.64;100.00
19023;BME280;35226;48.606;8.858;2024-01-30T12:01:30;97590.75;;;9.77;100.00
19023;BME280;35226;48.606;8.858;2024-01-30T12:03:58;97589.09;;;9.83;100.00
19023;BME280;35226;48.606;8.858;2024-01-30T12:06:23;97583.03;;;9.99;100.00
19023;BME280;35226;48.606;8.858;2024-01-30T12:08:59;97583.09;;;9.95;100.00
19023;BME280;35226;48.606;8.858;2024-01-30T12:11:26;97572.28;;;10.12;100.00
19023;BME280;35226;48.606;8.858;2024-01-30T12:13:52;97572.97;;;10.26;100.00
19023;BME280;35226;48.606;8.858;2024-01-30T12:16:18;97575.31;;;10.28;100.00
19023;BME280;35226;48.606;8.858;2024-01-30T12:18:43;97578.81;;;10.32;100.00
19023;BME280;35226;48.606;8.858;2024-01-30T12:21:09;97573.06;;;10.53;100.00
19023;BME280;35226;48.606;8.858;2024-01-30T12:23:35;97566.78;;;10.49;100.00
19023;BME280;35226;48.606;8.858;2024-01-30T12:26:01;97568.28;;;10.57;100.00
19023;BME280;35226;48.606;8.858;2024-01-30T12:28:27;97557.41;;;10.39;100.00
19023;BME280;35226;48.606;8.858;2024-01-30T12:30:56;97567.66;;;10.43;100.00
19023;BME280;35226;48.606;8.858;2024-01-30T12:33:26;97567.03;;;10.62;100.00
19023;BME280;35226;48.606;8.858;2024-01-30T12:35:53;97564.47;;;10.78;100.00
19023;BME280;35226;48.606;8.858;2024-01-30T12:38:19;97564.97;;;11.00;100.00
19023;BME280;35226;48.606;8.858;2024-01-30T12:40:45;97553.88;;;11.30;100.00
19023;BME280;35226;48.606;8.858;2024-01-30T12:43:10;97558.84;;;11.16;100.00
19023;BME280;35226;48.606;8.858;2024-01-30T12:45:36;97566.41;;;11.38;100.00
19023;BME280;35226;48.606;8.858;2024-01-30T12:48:02;97567.59;;;11.37;100.00
19023;BME280;35226;48.606;8.858;2024-01-30T12:50:27;97559.81;;;11.56;100.00
19023;BME280;35226;48.606;8.858;2024-01-30T12:52:53;97559.50;;;11.77;100.00
19023;BME280;35226;48.606;8.858;2024-01-30T12:55:18;97560.41;;;12.17;100.00
19023;BME280;35226;48.606;8.858;2024-01-30T12:57:44;97562.78;;;12.38;100.00